createdAt,value
2018-08-25T00:01:09.584Z,43.02
2018-08-25T00:03:35.543Z,43.17
2018-08-25T00:06:01.603Z,42.53
2018-08-25T00:08:27.571Z,43.47
2018-08-25T00:10:53.533Z,42.91
2018-08-25T00:13:19.502Z,42.81
2018-08-25T00:15:45.463Z,42.16
2018-08-25T00:18:11.499Z,43.06
2018-08-25T00:20:37.475Z,43.40
2018-08-25T00:23:03.504Z,43.71
2018-08-25T00:25:29.501Z,42.47
2018-08-25T00:27:55.466Z,42.11
2018-08-25T00:30:21.438Z,42.58
2018-08-25T00:32:47.456Z,42.50
2018-08-25T00:35:13.442Z,43.10
2018-08-25T00:37:39.412Z,41.86
2018-08-25T00:40:05.386Z,41.81
2018-08-25T00:42:31.368Z,41.67
2018-08-25T00:44:57.346Z,41.70
2018-08-25T00:47:23.319Z,42.41
2018-08-25T00:49:49.290Z,42.16
2018-08-25T00:52:15.345Z,41.44
2018-08-25T00:54:41.365Z,41.38
2018-08-25T00:57:07.332Z,42.49
2018-08-25T00:59:33.323Z,42.68
2018-08-25T01:01:59.379Z,41.80
2018-08-25T01:04:25.383Z,42.21
2018-08-25T01:06:51.337Z,42.16
2018-08-25T01:09:17.335Z,42.72
2018-08-25T01:11:43.307Z,42.09
2018-08-25T01:14:09.260Z,42.13
2018-08-25T01:16:35.252Z,40.70
2018-08-25T01:19:01.212Z,41.23
2018-08-25T01:21:27.156Z,41.30
2018-08-25T01:23:53.160Z,42.57
2018-08-25T01:26:19.130Z,40.84
2018-08-25T01:28:45.104Z,42.01
2018-08-25T01:31:11.092Z,41.97
2018-08-25T01:33:37.074Z,41.57
2018-08-25T01:36:03.044Z,41.15
2018-08-25T01:38:29.012Z,40.77
2018-08-25T01:40:54.977Z,41.19
2018-08-25T01:43:20.936Z,41.94
2018-08-25T01:45:46.943Z,41.26
2018-08-25T01:48:12.960Z,40.75
2018-08-25T01:50:40.068Z,41.99
2018-08-25T01:53:06.014Z,42.77
2018-08-25T01:55:31.972Z,42.05
2018-08-25T01:57:58.082Z,41.80
2018-08-25T02:00:24.038Z,41.93
2018-08-25T02:02:50.098Z,42.61
2018-08-25T02:05:15.984Z,42.12
2018-08-25T02:07:41.936Z,42.12
2018-08-25T02:10:07.892Z,42.68
2018-08-25T02:12:33.940Z,42.15
2018-08-25T02:14:59.901Z,42.42
2018-08-25T02:17:26.542Z,42.00
2018-08-25T02:19:52.501Z,42.99
2018-08-25T02:22:18.513Z,43.43
2018-08-25T02:24:44.483Z,43.01
2018-08-25T02:27:10.487Z,42.83
2018-08-25T02:29:36.480Z,42.10
2018-08-25T02:32:02.440Z,42.87
2018-08-25T02:34:28.423Z,42.27
2018-08-25T02:36:54.373Z,43.11
2018-08-25T02:39:20.373Z,43.90
2018-08-25T02:41:46.335Z,44.03
2018-08-25T02:44:12.330Z,43.38
2018-08-25T02:46:38.283Z,43.56
2018-08-25T02:49:04.249Z,44.49
2018-08-25T02:51:30.237Z,44.14
2018-08-25T02:53:56.218Z,45.33
2018-08-25T02:56:22.173Z,43.88
2018-08-25T02:58:48.138Z,44.98
2018-08-25T03:01:14.128Z,44.63
2018-08-25T03:03:40.230Z,44.45
2018-08-25T03:06:06.194Z,44.95
2018-08-25T03:08:32.178Z,45.52
2018-08-25T03:10:58.132Z,44.92
2018-08-25T03:13:24.095Z,45.64
2018-08-25T03:15:50.086Z,45.76
2018-08-25T03:18:16.075Z,45.30
2018-08-25T03:20:42.031Z,46.18
2018-08-25T03:23:08.020Z,45.92
2018-08-25T03:25:34.014Z,46.30
2018-08-25T03:27:59.997Z,45.40
2018-08-25T03:30:25.955Z,45.90
2018-08-25T03:32:51.919Z,46.93
2018-08-25T03:35:17.873Z,46.74
2018-08-25T03:37:43.827Z,46.66
2018-08-25T03:40:09.788Z,46.75
2018-08-25T03:42:35.864Z,46.07
2018-08-25T03:45:01.835Z,46.88
2018-08-25T03:47:27.826Z,47.39
2018-08-25T03:49:53.808Z,46.65
2018-08-25T03:52:19.868Z,47.40
2018-08-25T03:54:45.844Z,46.68
2018-08-25T03:57:11.932Z,46.86
2018-08-25T03:59:37.916Z,47.63
2018-08-25T04:02:03.893Z,47.36
2018-08-25T04:04:29.912Z,47.67
2018-08-25T04:06:55.945Z,47.73
2018-08-25T04:09:21.946Z,47.78
2018-08-25T04:11:47.911Z,48.40
2018-08-25T04:14:13.920Z,47.80
2018-08-25T04:16:39.869Z,47.80
2018-08-25T04:19:05.854Z,48.27
2018-08-25T04:21:31.923Z,48.21
2018-08-25T04:23:57.971Z,48.70
2018-08-25T04:26:23.949Z,48.93
2018-08-25T04:28:49.913Z,48.50
2018-08-25T04:31:15.923Z,48.08
2018-08-25T04:33:41.889Z,48.59
2018-08-25T04:36:07.848Z,47.68
2018-08-25T04:38:33.853Z,48.42
2018-08-25T04:40:59.814Z,48.96
2018-08-25T04:43:25.786Z,48.19
2018-08-25T04:45:51.817Z,48.26
2018-08-25T04:48:17.772Z,48.38
2018-08-25T04:50:43.762Z,49.04
2018-08-25T04:53:09.741Z,48.87
2018-08-25T04:55:35.708Z,47.97
2018-08-25T04:58:01.687Z,49.07
2018-08-25T05:00:27.647Z,48.69
2018-08-25T05:02:53.607Z,49.55
2018-08-25T05:05:19.580Z,49.34
2018-08-25T05:07:45.766Z,49.26
2018-08-25T05:10:11.842Z,49.60
2018-08-25T05:12:37.830Z,49.55
2018-08-25T05:15:03.810Z,48.95
2018-08-25T05:17:29.798Z,49.49
2018-08-25T05:19:55.759Z,49.89
2018-08-25T05:22:21.743Z,49.20
2018-08-25T05:24:47.718Z,48.67
2018-08-25T05:27:13.712Z,48.65
2018-08-25T05:29:39.702Z,49.20
2018-08-25T05:32:05.708Z,48.99
2018-08-25T05:34:31.665Z,48.99
2018-08-25T05:36:57.640Z,48.88
2018-08-25T05:39:23.744Z,49.40
2018-08-25T05:41:49.716Z,49.75
2018-08-25T05:44:15.744Z,49.20
2018-08-25T05:46:41.680Z,49.85
2018-08-25T05:49:07.663Z,49.85
2018-08-25T05:51:33.642Z,49.22
2018-08-25T05:53:59.602Z,49.75
2018-08-25T05:56:25.604Z,49.99
2018-08-25T05:58:51.567Z,49.53
2018-08-25T06:01:17.542Z,50.03
2018-08-25T06:03:43.552Z,49.63
2018-08-25T06:06:09.552Z,49.93
2018-08-25T06:08:35.532Z,49.77
2018-08-25T06:11:01.537Z,49.94
2018-08-25T06:13:27.629Z,49.54
2018-08-25T06:15:53.568Z,49.25
2018-08-25T06:18:19.537Z,49.50
2018-08-25T06:20:45.498Z,50.10
2018-08-25T06:23:11.467Z,49.83
2018-08-25T06:25:37.446Z,49.04
2018-08-25T06:28:03.435Z,49.93
2018-08-25T06:30:29.450Z,49.00
2018-08-25T06:32:55.504Z,49.58
2018-08-25T06:35:21.586Z,49.49
2018-08-25T06:37:47.620Z,50.31
2018-08-25T06:40:13.598Z,49.59
2018-08-25T06:42:39.606Z,48.91
2018-08-25T06:45:05.614Z,49.36
2018-08-25T06:47:31.584Z,49.12
2018-08-25T06:49:57.647Z,49.24
2018-08-25T06:52:23.777Z,49.86
2018-08-25T06:54:50.733Z,49.95
2018-08-25T06:57:16.715Z,50.06
2018-08-25T06:59:42.703Z,49.73
2018-08-25T07:02:08.743Z,49.33
2018-08-25T07:04:34.700Z,49.36
2018-08-25T07:07:00.780Z,49.32
2018-08-25T07:09:26.751Z,50.05
2018-08-25T07:11:52.716Z,49.21
2018-08-25T07:14:18.663Z,49.44
2018-08-25T07:16:44.617Z,49.93
2018-08-25T07:19:10.589Z,49.67
2018-08-25T07:21:36.571Z,49.28
2018-08-25T07:24:02.583Z,49.14
2018-08-25T07:26:28.552Z,50.00
2018-08-25T07:28:54.532Z,49.79
2018-08-25T07:31:20.496Z,49.56
2018-08-25T07:33:46.486Z,48.94
2018-08-25T07:36:12.452Z,49.77
2018-08-25T07:38:38.397Z,49.10
2018-08-25T07:41:04.365Z,49.06
2018-08-25T07:43:30.349Z,49.05
2018-08-25T07:45:56.446Z,49.09
2018-08-25T07:48:22.424Z,49.02
2018-08-25T07:50:48.387Z,48.26
2018-08-25T07:53:14.427Z,47.86
2018-08-25T07:55:40.401Z,47.82
2018-08-25T07:58:06.406Z,48.25
2018-08-25T08:00:32.357Z,48.48
2018-08-25T08:02:58.265Z,49.77
2018-08-25T08:05:24.234Z,48.67
2018-08-25T08:07:50.197Z,48.42
2018-08-25T08:10:16.156Z,49.08
2018-08-25T08:12:42.122Z,49.63
2018-08-25T08:15:08.059Z,50.01
2018-08-25T08:17:34.059Z,49.44
2018-08-25T08:20:00.036Z,49.51
2018-08-25T08:22:26.023Z,48.78
2018-08-25T08:24:51.994Z,48.77
2018-08-25T08:27:17.945Z,48.31
2018-08-25T08:29:43.984Z,49.45
2018-08-25T08:32:09.940Z,49.42
2018-08-25T08:34:35.985Z,50.32
2018-08-25T08:37:01.958Z,50.15
2018-08-25T08:39:27.966Z,48.80
2018-08-25T08:41:53.868Z,48.62
2018-08-25T08:44:19.827Z,49.36
2018-08-25T08:46:45.814Z,48.93
2018-08-25T08:49:11.772Z,48.51
2018-08-25T08:51:38.652Z,48.91
2018-08-25T08:54:04.602Z,49.25
2018-08-25T08:56:30.583Z,49.04
2018-08-25T08:58:56.542Z,49.19
2018-08-25T09:01:22.500Z,49.55
2018-08-25T09:03:48.451Z,46.93
2018-08-25T09:06:14.488Z,47.23
2018-08-25T09:08:40.457Z,48.43
2018-08-25T09:11:06.444Z,48.11
2018-08-25T09:13:32.405Z,49.27
2018-08-25T09:15:58.383Z,49.29
2018-08-25T09:18:24.328Z,47.86
2018-08-25T09:20:50.322Z,49.83
2018-08-25T09:23:16.318Z,48.68
2018-08-25T09:25:42.287Z,49.72
2018-08-25T09:28:08.249Z,49.41
2018-08-25T09:30:34.232Z,49.34
2018-08-25T09:33:01.214Z,49.30
2018-08-25T09:35:27.177Z,49.53
2018-08-25T09:37:53.131Z,49.15
2018-08-25T09:40:19.094Z,48.94
2018-08-25T09:42:45.068Z,48.51
2018-08-25T09:45:11.033Z,49.09
2018-08-25T09:47:37.007Z,48.40
2018-08-25T09:50:02.972Z,49.04
2018-08-25T09:52:28.958Z,48.62
2018-08-25T09:54:54.910Z,48.29
2018-08-25T09:57:20.869Z,48.60
2018-08-25T09:59:46.819Z,47.53
2018-08-25T10:02:12.784Z,47.89
2018-08-25T10:04:38.732Z,49.06
2018-08-25T10:07:04.706Z,49.25
2018-08-25T10:09:30.680Z,49.51
2018-08-25T10:11:56.632Z,49.28
2018-08-25T10:14:22.606Z,47.10
2018-08-25T10:16:48.685Z,47.20
2018-08-25T10:19:14.742Z,47.93
2018-08-25T10:21:40.715Z,48.01
2018-08-25T10:24:06.683Z,49.16
2018-08-25T10:26:32.657Z,49.44
2018-08-25T10:28:58.679Z,49.25
2018-08-25T10:31:24.654Z,48.18
2018-08-25T10:33:50.619Z,49.08
2018-08-25T10:36:16.602Z,48.41
2018-08-25T10:38:42.558Z,48.10
2018-08-25T10:41:08.604Z,48.34
2018-08-25T10:43:34.607Z,48.32
2018-08-25T10:46:00.605Z,48.42
2018-08-25T10:48:26.545Z,47.71
2018-08-25T10:50:52.571Z,47.91
2018-08-25T10:53:18.636Z,48.82
2018-08-25T10:55:44.620Z,48.69
2018-08-25T10:58:10.576Z,48.43
2018-08-25T11:00:36.574Z,49.01
2018-08-25T11:03:02.499Z,48.65
2018-08-25T11:05:28.492Z,48.94
2018-08-25T11:07:54.531Z,47.23
2018-08-25T11:10:20.501Z,48.40
2018-08-25T11:12:46.790Z,47.47
2018-08-25T11:15:12.786Z,47.60
2018-08-25T11:17:38.776Z,47.77
2018-08-25T11:20:04.763Z,47.16
2018-08-25T11:22:30.758Z,47.31
2018-08-25T11:24:56.724Z,48.17
2018-08-25T11:27:22.703Z,47.91
2018-08-25T11:29:48.661Z,47.96
2018-08-25T11:32:14.633Z,47.57
2018-08-25T11:34:40.591Z,47.78
2018-08-25T11:37:06.657Z,47.22
2018-08-25T11:39:32.592Z,48.28
2018-08-25T11:41:58.561Z,47.60
2018-08-25T11:44:24.545Z,49.40
2018-08-25T11:46:50.575Z,47.78
2018-08-25T11:49:16.566Z,48.17
2018-08-25T11:51:42.526Z,47.30
2018-08-25T11:54:08.658Z,46.75
2018-08-25T11:56:34.557Z,47.81
2018-08-25T11:59:00.503Z,47.63
2018-08-25T12:01:26.454Z,48.01
2018-08-25T12:03:52.426Z,47.10
2018-08-25T12:06:18.370Z,48.23
2018-08-25T12:08:44.352Z,46.90
2018-08-25T12:11:10.353Z,48.17
2018-08-25T12:13:36.355Z,46.92
2018-08-25T12:16:02.321Z,47.48
2018-08-25T12:18:28.307Z,46.06
2018-08-25T12:20:54.272Z,48.06
2018-08-25T12:23:20.246Z,47.61
2018-08-25T12:25:46.207Z,47.27
2018-08-25T12:28:12.164Z,48.07
2018-08-25T12:30:38.169Z,47.85
2018-08-25T12:33:04.222Z,47.50
2018-08-25T12:35:30.198Z,47.02
2018-08-25T12:37:56.151Z,48.33
2018-08-25T12:40:22.152Z,47.57
2018-08-25T12:42:48.126Z,46.87
2018-08-25T12:45:14.129Z,48.26
2018-08-25T12:47:40.165Z,48.13
2018-08-25T12:50:06.132Z,48.59
2018-08-25T12:52:32.097Z,47.88
2018-08-25T12:54:58.049Z,48.73
2018-08-25T12:57:24.011Z,49.40
2018-08-25T12:59:49.964Z,49.47
2018-08-25T13:02:15.963Z,49.85
2018-08-25T13:04:41.905Z,49.77
2018-08-25T13:07:07.859Z,49.62
2018-08-25T13:09:33.912Z,49.61
2018-08-25T13:11:59.878Z,51.34
2018-08-25T13:14:25.888Z,50.19
2018-08-25T13:16:51.892Z,50.73
2018-08-25T13:19:17.873Z,50.84
2018-08-25T13:21:43.902Z,51.19
2018-08-25T13:24:09.855Z,50.67
2018-08-25T13:26:35.903Z,50.36
2018-08-25T13:29:01.955Z,50.65
2018-08-25T13:31:27.918Z,50.28
2018-08-25T13:33:53.880Z,51.22
2018-08-25T13:36:19.823Z,51.16
2018-08-25T13:38:45.796Z,50.49
2018-08-25T13:41:11.762Z,50.70
2018-08-25T13:43:37.780Z,49.78
2018-08-25T13:46:03.696Z,50.03
2018-08-25T13:48:29.655Z,49.62
2018-08-25T13:50:55.647Z,49.20
2018-08-25T13:53:21.618Z,49.09
2018-08-25T13:55:47.582Z,49.48
2018-08-25T13:58:13.617Z,48.99
2018-08-25T14:00:39.558Z,49.30
2018-08-25T14:03:05.518Z,49.36
2018-08-25T14:05:31.637Z,49.56
2018-08-25T14:07:57.747Z,50.09
2018-08-25T14:10:23.714Z,49.25
2018-08-25T14:12:49.686Z,50.07
2018-08-25T14:15:15.641Z,49.39
2018-08-25T14:17:41.622Z,48.92
2018-08-25T14:20:07.634Z,49.42
2018-08-25T14:22:33.618Z,48.87
2018-08-25T14:24:59.581Z,48.51
2018-08-25T14:27:25.573Z,49.38
2018-08-25T14:29:51.526Z,50.08
2018-08-25T14:32:17.544Z,49.30
2018-08-25T14:34:43.552Z,49.83
2018-08-25T14:37:09.592Z,49.88
2018-08-25T14:39:35.549Z,49.36
2018-08-25T14:42:01.498Z,49.52
2018-08-25T14:44:27.476Z,49.02
2018-08-25T14:46:53.470Z,48.90
2018-08-25T14:49:19.472Z,49.51
2018-08-25T14:51:45.444Z,48.82
2018-08-25T14:54:11.418Z,48.94
2018-08-25T14:56:37.386Z,48.41
2018-08-25T14:59:03.344Z,49.06
2018-08-25T15:01:29.321Z,48.20
2018-08-25T15:03:55.351Z,47.80
2018-08-25T15:06:21.384Z,48.15
2018-08-25T15:08:47.348Z,49.98
2018-08-25T15:11:13.334Z,48.06
2018-08-25T15:13:39.324Z,48.75
2018-08-25T15:16:05.320Z,48.13
2018-08-25T15:18:31.287Z,47.32
2018-08-25T15:20:57.255Z,48.44
2018-08-25T15:23:23.227Z,47.75
2018-08-25T15:25:49.168Z,48.93
2018-08-25T15:28:15.168Z,48.83
2018-08-25T15:30:41.140Z,48.83
2018-08-25T15:33:07.119Z,48.84
2018-08-25T15:35:33.119Z,48.67
2018-08-25T15:37:59.153Z,48.24
2018-08-25T15:40:25.165Z,49.29
2018-08-25T15:42:51.155Z,48.35
2018-08-25T15:45:17.106Z,49.60
2018-08-25T15:47:43.075Z,48.31
2018-08-25T15:50:09.045Z,47.97
2018-08-25T15:52:35.125Z,49.67
2018-08-25T15:55:01.107Z,49.11
2018-08-25T15:57:27.143Z,48.60
2018-08-25T15:59:53.014Z,49.27
2018-08-25T16:02:18.947Z,48.79
2018-08-25T16:04:44.905Z,49.08
2018-08-25T16:07:10.852Z,48.70
2018-08-25T16:09:36.816Z,48.29
2018-08-25T16:12:02.839Z,48.53
2018-08-25T16:14:28.773Z,48.60
2018-08-25T16:16:54.746Z,48.84
2018-08-25T16:19:20.744Z,48.62
2018-08-25T16:21:46.768Z,49.62
2018-08-25T16:24:12.734Z,48.85
2018-08-25T16:26:38.708Z,49.07
2018-08-25T16:29:04.717Z,48.76
2018-08-25T16:31:30.682Z,48.83
2018-08-25T16:33:56.641Z,48.39
2018-08-25T16:36:22.634Z,48.05
2018-08-25T16:38:48.613Z,48.26
2018-08-25T16:41:14.568Z,47.83
2018-08-25T16:43:40.532Z,49.42
2018-08-25T16:46:06.526Z,49.05
2018-08-25T16:48:32.571Z,49.53
2018-08-25T16:50:58.501Z,48.74
2018-08-25T16:53:24.482Z,48.85
2018-08-25T16:55:50.458Z,48.67
2018-08-25T16:58:16.418Z,48.22
2018-08-25T17:00:42.436Z,48.23
2018-08-25T17:03:08.395Z,49.42
2018-08-25T17:05:34.395Z,49.31
2018-08-25T17:08:00.399Z,49.77
2018-08-25T17:10:26.417Z,49.58
2018-08-25T17:12:52.380Z,48.81
2018-08-25T17:15:19.288Z,49.33
2018-08-25T17:17:45.271Z,49.49
2018-08-25T17:20:11.271Z,48.52
2018-08-25T17:22:37.287Z,48.93
2018-08-25T17:25:03.254Z,49.41
2018-08-25T17:27:29.217Z,49.75
2018-08-25T17:29:55.181Z,50.37
2018-08-25T17:32:21.814Z,48.77
2018-08-25T17:34:47.827Z,48.93
2018-08-25T17:37:13.875Z,49.27
2018-08-25T17:39:39.854Z,49.17
2018-08-25T17:42:05.820Z,49.93
2018-08-25T17:44:31.813Z,48.89
2018-08-25T17:46:57.796Z,50.12
2018-08-25T17:49:23.798Z,50.15
2018-08-25T17:51:49.915Z,49.28
2018-08-25T17:54:15.903Z,49.70
2018-08-25T17:56:41.887Z,48.46
2018-08-25T17:59:07.891Z,48.42
2018-08-25T18:01:33.904Z,49.12
2018-08-25T18:03:59.941Z,48.81
2018-08-25T18:06:25.931Z,48.73
2018-08-25T18:08:51.884Z,48.50
2018-08-25T18:11:17.876Z,49.22
2018-08-25T18:13:43.838Z,48.90
2018-08-25T18:16:09.821Z,48.70
2018-08-25T18:18:35.786Z,49.33
2018-08-25T18:21:01.890Z,48.61
2018-08-25T18:23:27.928Z,48.29
2018-08-25T18:25:54.102Z,49.86
2018-08-25T18:28:20.142Z,49.59
2018-08-25T18:30:46.206Z,48.82
2018-08-25T18:33:12.452Z,48.37
2018-08-25T18:35:38.795Z,48.52
2018-08-25T18:38:04.809Z,49.17
2018-08-25T18:40:31.001Z,48.49
2018-08-25T18:42:57.316Z,48.92
2018-08-25T18:45:23.571Z,49.64
2018-08-25T18:47:49.579Z,49.58
2018-08-25T18:50:15.808Z,49.86
2018-08-25T18:52:41.837Z,49.30
2018-08-25T18:55:08.095Z,49.00
2018-08-25T18:57:34.164Z,49.16
2018-08-25T19:00:00.148Z,49.72
2018-08-25T19:02:26.200Z,49.51
2018-08-25T19:04:52.125Z,48.83
2018-08-25T19:07:18.369Z,49.37
2018-08-25T19:09:44.619Z,48.62
2018-08-25T19:12:10.776Z,49.70
2018-08-25T19:14:36.827Z,49.67
2018-08-25T19:17:03.049Z,49.97
2018-08-25T19:19:29.156Z,49.02
2018-08-25T19:21:55.395Z,48.69
2018-08-25T19:24:21.708Z,48.78
2018-08-25T19:26:47.996Z,48.68
2018-08-25T19:29:14.221Z,49.65
2018-08-25T19:31:40.484Z,49.16
2018-08-25T19:34:06.741Z,50.02
2018-08-25T19:36:33.054Z,49.19
2018-08-25T19:38:59.301Z,49.71
2018-08-25T19:41:25.674Z,49.73
2018-08-25T19:43:52.956Z,48.99
2018-08-25T19:46:19.198Z,48.80
2018-08-25T19:48:45.425Z,48.88
2018-08-25T19:51:11.860Z,48.39
2018-08-25T19:53:38.173Z,49.07
2018-08-25T19:56:04.501Z,49.01
2018-08-25T19:58:30.635Z,48.73
2018-08-25T20:00:56.858Z,49.30
2018-08-25T20:03:23.237Z,48.63
2018-08-25T20:05:49.566Z,48.99
2018-08-25T20:08:15.817Z,48.48
2018-08-25T20:10:42.082Z,49.34
2018-08-25T20:13:08.506Z,48.74
2018-08-25T20:15:35.820Z,48.96
2018-08-25T20:18:01.833Z,48.21
2018-08-25T20:20:27.874Z,48.59
2018-08-25T20:22:54.061Z,47.99
2018-08-25T20:25:20.066Z,49.19
2018-08-25T20:27:46.111Z,48.23
2018-08-25T20:30:12.335Z,47.69
2018-08-25T20:32:38.358Z,47.64
2018-08-25T20:35:04.590Z,47.81
2018-08-25T20:37:30.833Z,47.28
2018-08-25T20:39:57.086Z,47.85
2018-08-25T20:42:23.101Z,47.52
2018-08-25T20:44:49.243Z,47.06
2018-08-25T20:47:15.434Z,46.85
2018-08-25T20:49:41.457Z,47.38
2018-08-25T20:52:07.381Z,47.66
2018-08-25T20:54:33.332Z,47.77
2018-08-25T20:56:59.328Z,47.27
2018-08-25T20:59:25.291Z,46.85
2018-08-25T21:01:51.250Z,47.41
2018-08-25T21:04:17.216Z,47.38
2018-08-25T21:06:43.286Z,47.73
2018-08-25T21:09:09.205Z,47.25
2018-08-25T21:11:35.161Z,47.05
2018-08-25T21:14:01.167Z,46.44
2018-08-25T21:16:27.128Z,47.00
2018-08-25T21:18:53.059Z,46.94
2018-08-25T21:21:19.038Z,47.07
2018-08-25T21:23:45.004Z,46.77
2018-08-25T21:26:10.990Z,46.95
2018-08-25T21:28:36.941Z,46.89
2018-08-25T21:31:02.931Z,46.76
2018-08-25T21:33:28.870Z,46.50
2018-08-25T21:35:54.843Z,46.81
2018-08-25T21:38:20.904Z,46.48
2018-08-25T21:40:46.904Z,46.45
2018-08-25T21:43:12.902Z,46.70
2018-08-25T21:45:38.858Z,46.71
2018-08-25T21:48:04.865Z,46.33
2018-08-25T21:50:30.846Z,46.78
2018-08-25T21:52:56.875Z,46.13
2018-08-25T21:55:22.848Z,45.95
2018-08-25T21:57:48.804Z,46.24
2018-08-25T22:00:14.781Z,46.74
2018-08-25T22:02:40.759Z,46.39
2018-08-25T22:05:06.802Z,46.18
2018-08-25T22:07:32.817Z,46.36
2018-08-25T22:09:58.814Z,46.09
2018-08-25T22:12:24.875Z,46.62
2018-08-25T22:14:50.829Z,46.53
2018-08-25T22:17:16.823Z,46.17
2018-08-25T22:19:42.819Z,46.68
2018-08-25T22:22:09.019Z,46.52
2018-08-25T22:24:34.991Z,46.71
2018-08-25T22:27:00.985Z,46.26
2018-08-25T22:29:27.005Z,46.81
2018-08-25T22:31:53.028Z,46.07
2018-08-25T22:34:18.996Z,46.29
2018-08-25T22:36:44.977Z,46.50
2018-08-25T22:39:10.994Z,46.52
2018-08-25T22:41:37.037Z,46.54
2018-08-25T22:44:03.073Z,46.60
2018-08-25T22:46:29.029Z,45.85
2018-08-25T22:48:54.994Z,45.73
2018-08-25T22:51:21.009Z,45.68
2018-08-25T22:53:46.985Z,45.89
2018-08-25T22:56:12.995Z,46.34
2018-08-25T22:58:38.963Z,45.76
2018-08-25T23:01:04.961Z,45.70
2018-08-25T23:03:30.944Z,45.96
2018-08-25T23:05:56.926Z,46.32
2018-08-25T23:08:22.883Z,45.90
2018-08-25T23:10:48.860Z,45.65
2018-08-25T23:13:14.869Z,45.66
2018-08-25T23:15:40.839Z,46.69
2018-08-25T23:18:06.825Z,46.12
2018-08-25T23:20:32.789Z,46.05
2018-08-25T23:22:58.755Z,46.05
2018-08-25T23:25:24.730Z,46.93
2018-08-25T23:27:50.690Z,46.48
2018-08-25T23:30:16.723Z,46.31
2018-08-25T23:32:42.644Z,46.96
2018-08-25T23:35:08.627Z,46.84
2018-08-25T23:37:34.584Z,46.34
2018-08-25T23:40:00.548Z,46.23
2018-08-25T23:42:26.516Z,46.55
2018-08-25T23:44:52.501Z,46.63
2018-08-25T23:47:18.460Z,46.88
2018-08-25T23:49:44.430Z,47.07
2018-08-25T23:52:10.413Z,46.72
2018-08-25T23:54:36.371Z,47.49
2018-08-25T23:57:02.323Z,46.67
2018-08-25T23:59:28.303Z,46.96
